createdAt,value
2023-05-25T00:02:08.590Z,73136.63
2023-05-25T00:04:37.356Z,73136.63
2023-05-25T00:07:05.997Z,73135.82
2023-05-25T00:09:34.949Z,73135.83
2023-05-25T00:12:03.366Z,73136.63
2023-05-25T00:14:32.327Z,73133.80
2023-05-25T00:17:04.325Z,73131.79
2023-05-25T00:19:34.128Z,73135.83
2023-05-25T00:22:02.624Z,73139.86
2023-05-25T00:24:31.270Z,73140.27
2023-05-25T00:26:59.596Z,73140.26
2023-05-25T00:29:28.476Z,73139.86
2023-05-25T00:31:56.725Z,73139.05
2023-05-25T00:34:25.147Z,73137.84
2023-05-25T00:36:53.991Z,73139.05
2023-05-25T00:39:22.271Z,73142.28
2023-05-25T00:41:50.644Z,73143.89
2023-05-25T00:44:22.128Z,73146.33
2023-05-25T00:46:52.763Z,73146.72
2023-05-25T00:49:23.244Z,73148.74
2023-05-25T00:51:52.175Z,73153.19
2023-05-25T00:54:20.380Z,73159.23
2023-05-25T00:56:53.287Z,73160.45
2023-05-25T00:59:27.092Z,73160.45
2023-05-25T01:01:55.734Z,73162.88
2023-05-25T01:04:28.639Z,73161.67
2023-05-25T01:06:58.112Z,73164.48
2023-05-25T01:09:28.416Z,73165.30
2023-05-25T01:11:56.944Z,73165.70
2023-05-25T01:14:25.714Z,73168.94
2023-05-25T01:16:55.411Z,73170.96
2023-05-25T01:19:23.666Z,73175.00
2023-05-25T01:22:08.600Z,73175.40
2023-05-25T01:24:44.550Z,73177.83
2023-05-25T01:27:12.760Z,73180.24
2023-05-25T01:29:43.640Z,73183.48
2023-05-25T01:32:13.564Z,73182.27
2023-05-25T01:34:43.328Z,73183.88
2023-05-25T01:37:13.692Z,73186.70
2023-05-25T01:39:42.042Z,73183.88
2023-05-25T01:42:10.708Z,73185.09
2023-05-25T01:44:39.138Z,73183.07
2023-05-25T01:47:17.175Z,73185.09
2023-05-25T01:50:06.528Z,73187.52
2023-05-25T01:52:45.707Z,73188.33
2023-05-25T01:55:18.690Z,73190.73
2023-05-25T01:57:50.471Z,73193.58
2023-05-25T02:00:19.900Z,73192.36
2023-05-25T02:02:51.037Z,73198.02
2023-05-25T02:05:28.209Z,73201.65
2023-05-25T02:07:56.782Z,73205.29
2023-05-25T02:10:26.399Z,73207.70
2023-05-25T02:12:54.690Z,73211.34
2023-05-25T02:15:23.064Z,73217.80
2023-05-25T02:17:51.644Z,73220.23
2023-05-25T02:20:19.977Z,73222.65
2023-05-25T02:22:48.524Z,73227.90
2023-05-25T02:25:17.624Z,73231.54
2023-05-25T02:27:46.274Z,73235.58
2023-05-25T02:30:14.985Z,73246.88
2023-05-25T02:32:43.474Z,73248.09
2023-05-25T02:35:11.874Z,73250.11
2023-05-25T02:37:41.855Z,73249.70
2023-05-25T02:40:10.949Z,73256.17
2023-05-25T02:42:39.219Z,73254.55
2023-05-25T02:45:10.769Z,73259.00
2023-05-25T02:47:39.521Z,73257.38
2023-05-25T02:50:08.117Z,73259.00
2023-05-25T02:52:40.791Z,73260.61
2023-05-25T02:55:10.490Z,73255.77
2023-05-25T02:57:39.625Z,73256.17
2023-05-25T03:00:09.016Z,73255.77
2023-05-25T03:02:37.796Z,73254.16
2023-05-25T03:05:07.719Z,73258.59
2023-05-25T03:07:36.926Z,73257.79
2023-05-25T03:10:05.435Z,73259.80
2023-05-25T03:12:33.883Z,73261.42
2023-05-25T03:15:02.239Z,73256.58
2023-05-25T03:17:31.324Z,73251.73
2023-05-25T03:19:59.692Z,73245.67
2023-05-25T03:22:28.219Z,73244.46
2023-05-25T03:24:56.491Z,73246.08
2023-05-25T03:27:25.547Z,73244.46
2023-05-25T03:29:53.856Z,73247.29
2023-05-25T03:32:24.314Z,73250.92
2023-05-25T03:34:52.913Z,73248.50
2023-05-25T03:37:21.697Z,73247.29
2023-05-25T03:39:50.219Z,73248.90
2023-05-25T03:42:18.727Z,73253.75
2023-05-25T03:44:47.082Z,73256.17
2023-05-25T03:47:15.587Z,73259.41
2023-05-25T03:49:46.345Z,73263.03
2023-05-25T03:52:16.217Z,73262.63
2023-05-25T03:54:44.495Z,73253.75
2023-05-25T03:57:12.798Z,73249.70
2023-05-25T03:59:41.167Z,73244.86
2023-05-25T04:02:12.107Z,73241.23
2023-05-25T04:04:42.396Z,73231.94
2023-05-25T04:07:12.162Z,73229.92
2023-05-25T04:09:40.493Z,73227.49
2023-05-25T04:12:08.928Z,73220.63
2023-05-25T04:14:37.155Z,73212.95
2023-05-25T04:17:05.539Z,73209.73
2023-05-25T04:19:35.835Z,73205.69
2023-05-25T04:22:05.120Z,73199.63
2023-05-25T04:24:34.386Z,73196.80
2023-05-25T04:27:02.760Z,73188.32
2023-05-25T04:29:32.200Z,73183.88
2023-05-25T04:32:21.735Z,73178.63
2023-05-25T04:34:56.747Z,73172.57
2023-05-25T04:37:27.738Z,73168.53
2023-05-25T04:39:58.693Z,73158.84
2023-05-25T04:42:29.060Z,73157.63
2023-05-25T04:44:57.586Z,73150.76
2023-05-25T04:47:26.373Z,73139.05
2023-05-25T04:49:56.415Z,73130.97
2023-05-25T04:52:24.627Z,73121.29
2023-05-25T04:54:54.906Z,73106.73
2023-05-25T04:57:23.283Z,73088.16
2023-05-25T04:59:52.528Z,73061.10
2023-05-25T05:02:20.892Z,73043.34
2023-05-25T05:04:52.661Z,73033.23
2023-05-25T05:07:21.991Z,73018.70
2023-05-25T05:09:50.807Z,73011.02
2023-05-25T05:12:19.992Z,72998.52
2023-05-25T05:14:51.656Z,72991.24
2023-05-25T05:17:20.152Z,72987.20
2023-05-25T05:19:49.001Z,72977.91
2023-05-25T05:22:17.299Z,72967.02
2023-05-25T05:24:46.845Z,72962.57
2023-05-25T05:27:21.738Z,72954.09
2023-05-25T05:29:55.428Z,72946.41
2023-05-25T05:32:24.116Z,72933.09
2023-05-25T05:34:52.508Z,72939.15
2023-05-25T05:37:39.097Z,72943.19
2023-05-25T05:40:07.836Z,72923.40
2023-05-25T05:42:47.085Z,72897.15
2023-05-25T05:45:15.732Z,72872.11
2023-05-25T05:47:44.936Z,72848.69
2023-05-25T05:50:13.428Z,72833.34
2023-05-25T05:52:42.775Z,72810.73
2023-05-25T05:55:13.133Z,72797.80
2023-05-25T05:57:42.847Z,72790.13
2023-05-25T06:00:11.502Z,72759.45
2023-05-25T06:02:47.091Z,72739.65
2023-05-25T06:05:21.049Z,72707.35
2023-05-25T06:07:49.733Z,72665.35
2023-05-25T06:10:19.722Z,72618.92
2023-05-25T06:12:49.773Z,72587.83
2023-05-25T06:15:18.206Z,72567.23
2023-05-25T06:17:47.634Z,72544.61
2023-05-25T06:20:17.086Z,72540.58
2023-05-25T06:22:49.892Z,72524.83
2023-05-25T06:25:18.150Z,72533.72
2023-05-25T06:27:46.712Z,72532.91
2023-05-25T06:30:20.996Z,72545.83
2023-05-25T06:32:49.454Z,72531.30
2023-05-25T06:35:21.100Z,72515.14
2023-05-25T06:37:51.795Z,72511.91
2023-05-25T06:40:20.875Z,72523.21
2023-05-25T06:42:49.160Z,72536.14
2023-05-25T06:45:40.485Z,72534.12
2023-05-25T06:48:08.873Z,72513.52
2023-05-25T06:50:37.716Z,72490.91
2023-05-25T06:53:06.747Z,72471.53
2023-05-25T06:55:35.070Z,72465.88
2023-05-25T06:58:05.781Z,72445.29
2023-05-25T07:00:37.657Z,72435.59
2023-05-25T07:03:06.003Z,72439.23
2023-05-25T07:05:34.318Z,72415.81
2023-05-25T07:08:03.562Z,72389.97
2023-05-25T07:10:32.182Z,72365.34
2023-05-25T07:13:02.361Z,72356.45
2023-05-25T07:15:30.728Z,72357.66
2023-05-25T07:18:05.224Z,72381.48
2023-05-25T07:20:34.528Z,72339.09
2023-05-25T07:23:04.494Z,72330.61
2023-05-25T07:25:32.841Z,72298.31
2023-05-25T07:28:01.364Z,72299.52
2023-05-25T07:30:30.231Z,72276.10
2023-05-25T07:32:59.007Z,72258.34
2023-05-25T07:35:27.600Z,72224.83
2023-05-25T07:38:05.339Z,72195.35
2023-05-25T07:40:34.080Z,72170.32
2023-05-25T07:43:02.390Z,72154.17
2023-05-25T07:45:30.844Z,72103.30
2023-05-25T07:47:59.166Z,72087.14
2023-05-25T07:50:27.822Z,72126.71
2023-05-25T07:52:59.952Z,72112.98
2023-05-25T07:55:28.356Z,72108.14
2023-05-25T07:57:59.663Z,72071.80
2023-05-25T08:00:29.120Z,72048.79
2023-05-25T08:02:57.670Z,72064.13
2023-05-25T08:05:26.357Z,72066.95
2023-05-25T08:07:54.829Z,72051.61
2023-05-25T08:10:23.783Z,72029.41
2023-05-25T08:12:52.764Z,72003.56
2023-05-25T08:15:21.529Z,71996.70
2023-05-25T08:17:51.185Z,72012.45
2023-05-25T08:20:19.659Z,72063.73
2023-05-25T08:22:48.030Z,72085.93
2023-05-25T08:25:16.365Z,72107.73
2023-05-25T08:27:44.612Z,72127.92
2023-05-25T08:30:14.159Z,72138.02
2023-05-25T08:32:42.595Z,72156.60
2023-05-25T08:35:11.112Z,72150.94
2023-05-25T08:37:40.243Z,72134.38
2023-05-25T08:40:14.307Z,72139.23
2023-05-25T08:42:43.723Z,72126.70
2023-05-25T08:45:26.332Z,72118.64
2023-05-25T08:47:59.232Z,72107.34
2023-05-25T08:50:28.075Z,72087.14
2023-05-25T08:52:57.984Z,72054.84
2023-05-25T08:55:28.328Z,72007.61
2023-05-25T08:58:17.334Z,71959.56
2023-05-25T09:00:51.482Z,71896.17
2023-05-25T09:03:20.262Z,71863.47
2023-05-25T09:05:48.748Z,71868.72
2023-05-25T09:08:17.669Z,71846.52
2023-05-25T09:10:46.523Z,71817.05
2023-05-25T09:15:46.686Z,71829.16
2023-05-25T09:18:14.942Z,71848.54
2023-05-25T09:20:46.213Z,71820.67
2023-05-25T09:23:16.381Z,71780.30
2023-05-25T09:25:46.554Z,71800.09
2023-05-25T09:28:26.491Z,71772.23
2023-05-25T09:30:56.452Z,71759.31
2023-05-25T09:33:24.845Z,71768.20
2023-05-25T09:35:53.253Z,71753.27
2023-05-25T09:38:22.719Z,71752.45
2023-05-25T09:40:51.470Z,71781.52
2023-05-25T09:43:28.437Z,71792.42
2023-05-25T09:46:01.789Z,71781.52
2023-05-25T09:48:30.669Z,71756.48
2023-05-25T09:50:58.975Z,71763.35
2023-05-25T09:53:27.507Z,71735.49
2023-05-25T09:55:56.627Z,71704.81
2023-05-25T09:58:27.580Z,71765.38
2023-05-25T10:00:56.180Z,71820.67
2023-05-25T10:03:24.538Z,71839.24
2023-05-25T10:05:54.088Z,71852.58
2023-05-25T10:08:23.923Z,71863.88
2023-05-25T10:10:53.194Z,71865.09
2023-05-25T10:13:23.095Z,71890.12
2023-05-25T10:15:54.196Z,71921.21
2023-05-25T10:18:26.466Z,71933.73
2023-05-25T10:21:01.136Z,71943.01
2023-05-25T10:23:33.314Z,71952.30
2023-05-25T10:26:03.495Z,71946.64
2023-05-25T10:28:38.456Z,71957.95
2023-05-25T10:31:07.364Z,71953.50
2023-05-25T10:33:36.152Z,71937.35
2023-05-25T10:36:10.886Z,71927.67
2023-05-25T10:38:41.081Z,71900.21
2023-05-25T10:41:11.050Z,71872.76
2023-05-25T10:43:40.151Z,71836.02
2023-05-25T10:46:08.671Z,71815.84
2023-05-25T10:48:40.510Z,71814.22
2023-05-25T10:51:11.104Z,71804.53
2023-05-25T10:53:47.391Z,71809.77
2023-05-25T10:56:16.972Z,71796.86
2023-05-25T10:58:46.746Z,71781.11
2023-05-25T11:01:16.324Z,71787.57
2023-05-25T11:03:45.616Z,71776.27
2023-05-25T11:06:18.597Z,71796.45
2023-05-25T11:08:56.088Z,71785.16
2023-05-25T11:11:45.464Z,71795.65
2023-05-25T11:14:30.325Z,71784.35
2023-05-25T11:17:17.815Z,71753.66
2023-05-25T11:19:51.364Z,71743.57
2023-05-25T11:22:21.398Z,71731.05
2023-05-25T11:24:53.687Z,71716.92
2023-05-25T11:27:25.685Z,71754.46
2023-05-25T11:29:54.653Z,71756.89
2023-05-25T11:32:23.172Z,71753.66
2023-05-25T11:34:55.256Z,71746.80
2023-05-25T11:37:29.040Z,71721.77
2023-05-25T11:39:57.761Z,71689.06
2023-05-25T11:42:26.516Z,71675.34
2023-05-25T11:44:55.742Z,71669.29
2023-05-25T11:47:25.545Z,71663.63
2023-05-25T11:49:55.772Z,71664.05
2023-05-25T11:52:24.149Z,71683.41
2023-05-25T11:54:53.437Z,71690.69
2023-05-25T11:57:25.845Z,71697.14
2023-05-25T11:59:54.892Z,71689.48
2023-05-25T12:02:24.027Z,71662.02
2023-05-25T12:04:54.225Z,71668.48
2023-05-25T12:07:22.686Z,71678.56
2023-05-25T12:09:52.664Z,71666.45
2023-05-25T12:12:25.382Z,71632.55
2023-05-25T12:14:53.756Z,71621.65
2023-05-25T12:17:22.473Z,71607.11
2023-05-25T12:19:51.217Z,71621.24
2023-05-25T12:22:19.761Z,71671.70
2023-05-25T12:24:49.691Z,71688.66
2023-05-25T12:27:18.854Z,71683.02
2023-05-25T12:29:47.878Z,71672.92
2023-05-25T12:32:16.329Z,71672.92
2023-05-25T12:34:45.330Z,71662.83
2023-05-25T12:37:20.463Z,71641.02
2023-05-25T12:39:48.935Z,71635.77
2023-05-25T12:42:17.668Z,71640.21
2023-05-25T12:44:46.898Z,71636.17
2023-05-25T12:47:23.567Z,71619.23
2023-05-25T12:49:52.786Z,71602.27
2023-05-25T12:52:37.842Z,71611.95
2023-05-25T12:55:28.275Z,71587.73
2023-05-25T12:58:01.673Z,71578.45
2023-05-25T13:00:37.279Z,71583.30
2023-05-25T13:03:09.120Z,71561.09
2023-05-25T13:05:38.368Z,71540.90
2023-05-25T13:08:07.291Z,71533.64
2023-05-25T13:10:37.925Z,71499.73
2023-05-25T13:13:06.211Z,71469.45
2023-05-25T13:15:34.511Z,71465.42
2023-05-25T13:18:02.906Z,71450.88
2023-05-25T13:20:32.708Z,71420.61
2023-05-25T13:23:03.177Z,71412.94
2023-05-25T13:25:31.770Z,71379.02
2023-05-25T13:28:01.300Z,71339.88
2023-05-25T13:30:29.810Z,71313.23
2023-05-25T13:32:58.178Z,71257.13
2023-05-25T13:35:45.836Z,71206.66
2023-05-25T13:38:17.126Z,71215.95
2023-05-25T13:40:46.357Z,71252.69
2023-05-25T13:43:15.148Z,71236.94
2023-05-25T13:45:44.096Z,71182.45
2023-05-25T13:48:12.868Z,71116.24
2023-05-25T13:50:41.308Z,71104.94
2023-05-25T13:53:09.692Z,71130.37
2023-05-25T13:55:38.763Z,71145.71
2023-05-25T13:58:07.397Z,71183.65
2023-05-25T14:00:35.834Z,71241.38
2023-05-25T14:03:04.217Z,71274.88
2023-05-25T14:05:32.645Z,71267.21
2023-05-25T14:08:04.939Z,71248.64
2023-05-25T14:10:33.474Z,71186.88
2023-05-25T14:13:01.808Z,71148.94
2023-05-25T14:15:30.127Z,71130.77
2023-05-25T14:17:58.838Z,71165.09
2023-05-25T14:20:27.314Z,71175.58
2023-05-25T14:22:55.599Z,71214.73
2023-05-25T14:25:23.861Z,71255.91
2023-05-25T14:27:52.259Z,71183.66
2023-05-25T14:30:21.183Z,71137.23
2023-05-25T14:32:49.611Z,71106.96
2023-05-25T14:35:18.018Z,71061.75
2023-05-25T14:37:46.453Z,71009.27
2023-05-25T14:40:14.800Z,70958.02
2023-05-25T14:42:43.275Z,70901.91
2023-05-25T14:45:12.844Z,70924.52
2023-05-25T14:47:42.393Z,70974.97
2023-05-25T14:50:10.699Z,71002.81
2023-05-25T14:56:44.047Z,71009.27
2023-05-25T14:59:12.278Z,71016.95
2023-05-25T15:01:40.774Z,71068.21
2023-05-25T15:04:09.525Z,71132.39
2023-05-25T15:06:39.603Z,71145.71
2023-05-25T15:09:08.008Z,71128.35
2023-05-25T15:11:36.313Z,71155.80
2023-05-25T15:14:04.642Z,71194.15
2023-05-25T15:16:33.069Z,71256.73
2023-05-25T15:19:01.617Z,71335.44
2023-05-25T15:21:29.792Z,71395.18
2023-05-25T15:23:58.051Z,71450.08
2023-05-25T15:26:26.597Z,71500.94
2023-05-25T15:28:54.875Z,71540.91
2023-05-25T15:31:24.129Z,71576.84
2023-05-25T15:33:58.681Z,71609.54
2023-05-25T15:36:28.981Z,71647.89
2023-05-25T15:38:58.367Z,71671.70
2023-05-25T15:41:27.289Z,71700.37
2023-05-25T15:44:01.178Z,71733.48
2023-05-25T15:46:29.623Z,71761.73
2023-05-25T15:48:57.956Z,71781.52
2023-05-25T15:51:26.295Z,71797.27
2023-05-25T15:53:55.488Z,71816.64
2023-05-25T15:56:23.882Z,71826.33
2023-05-25T15:58:53.543Z,71850.55
2023-05-25T16:01:22.773Z,71873.16
2023-05-25T16:03:51.094Z,71886.89
2023-05-25T16:06:19.987Z,71897.39
2023-05-25T16:08:48.255Z,71907.48
2023-05-25T16:11:16.572Z,71913.54
2023-05-25T16:13:45.605Z,71921.20
2023-05-25T16:16:14.005Z,71925.23
2023-05-25T16:18:42.385Z,71939.77
2023-05-25T16:21:10.709Z,71945.42
2023-05-25T16:23:40.230Z,71948.25
2023-05-25T16:26:10.331Z,71953.50
2023-05-25T16:28:39.289Z,71961.98
2023-05-25T16:31:07.992Z,71964.00
2023-05-25T16:33:36.227Z,71970.06
2023-05-25T16:36:04.518Z,71987.02
2023-05-25T16:38:32.775Z,72008.41
2023-05-25T16:41:01.183Z,72027.39
2023-05-25T16:43:29.471Z,72041.11
2023-05-25T16:45:57.811Z,72065.34
2023-05-25T16:48:26.107Z,72079.07
2023-05-25T16:50:54.331Z,72090.38
2023-05-25T16:53:22.574Z,72103.70
2023-05-25T16:55:50.844Z,72114.60
2023-05-25T16:58:19.116Z,72124.29
2023-05-25T17:00:47.491Z,72134.79
2023-05-25T17:03:16.060Z,72144.48
2023-05-25T17:05:44.580Z,72158.20
2023-05-25T17:08:13.094Z,72175.97
2023-05-25T17:10:42.627Z,72191.31
2023-05-25T17:13:10.896Z,72212.71
2023-05-25T17:15:39.278Z,72223.21
2023-05-25T17:18:07.592Z,72242.19
2023-05-25T17:20:35.964Z,72255.11
2023-05-25T17:23:04.475Z,72269.64
2023-05-25T17:25:34.198Z,72285.79
2023-05-25T17:28:02.821Z,72303.97
2023-05-25T17:30:31.137Z,72315.27
2023-05-25T17:33:01.917Z,72327.38
2023-05-25T17:35:31.255Z,72336.67
2023-05-25T17:37:59.508Z,72351.61
2023-05-25T17:40:27.765Z,72365.73
2023-05-25T17:42:55.955Z,72380.68
2023-05-25T17:45:24.349Z,72389.16
2023-05-25T17:47:52.680Z,72399.66
2023-05-25T17:50:20.980Z,72412.17
2023-05-25T17:52:49.264Z,72419.85
2023-05-25T17:55:17.465Z,72429.94
2023-05-25T17:57:45.811Z,72442.46
2023-05-25T18:00:14.623Z,72450.54
2023-05-25T18:02:42.885Z,72461.84
2023-05-25T18:05:11.468Z,72472.34
2023-05-25T18:07:42.414Z,72491.32
2023-05-25T18:10:11.014Z,72509.89
2023-05-25T18:12:40.267Z,72527.26
2023-05-25T18:15:10.957Z,72544.61
2023-05-25T18:17:39.402Z,72561.58
2023-05-25T18:20:09.837Z,72576.92
2023-05-25T18:22:38.197Z,72595.49
2023-05-25T18:25:06.798Z,72614.88
2023-05-25T18:27:35.061Z,72630.64
2023-05-25T18:30:03.489Z,72635.08
2023-05-25T18:32:32.652Z,72642.73
2023-05-25T18:35:01.077Z,72647.59
2023-05-25T18:37:31.410Z,72658.89
2023-05-25T18:39:59.992Z,72668.19
2023-05-25T18:42:29.298Z,72679.89
2023-05-25T18:44:57.623Z,72689.18
2023-05-25T18:47:26.517Z,72705.73
2023-05-25T18:49:54.832Z,72723.50
2023-05-25T18:52:23.338Z,72729.96
2023-05-25T18:54:51.861Z,72732.39
2023-05-25T18:57:20.197Z,72743.29
2023-05-25T18:59:49.274Z,72746.92
2023-05-25T19:02:17.681Z,72759.04
2023-05-25T19:04:46.199Z,72762.67
2023-05-25T19:07:14.784Z,72770.35
2023-05-25T19:09:43.803Z,72778.02
2023-05-25T19:12:12.176Z,72784.48
2023-05-25T19:14:41.171Z,72790.54
2023-05-25T19:17:09.572Z,72804.27
2023-05-25T19:19:37.958Z,72810.73
2023-05-25T19:22:06.662Z,72821.63
2023-05-25T19:24:35.222Z,72826.88
2023-05-25T19:27:05.703Z,72834.55
2023-05-25T19:29:34.086Z,72837.38
2023-05-25T19:32:02.498Z,72843.44
2023-05-25T19:34:30.837Z,72851.92
2023-05-25T19:37:10.260Z,72855.16
2023-05-25T19:39:39.351Z,72857.98
2023-05-25T19:42:08.032Z,72861.20
2023-05-25T19:44:36.820Z,72862.02
2023-05-25T19:47:05.187Z,72865.23
2023-05-25T19:49:33.705Z,72866.05
2023-05-25T19:52:01.988Z,72871.71
2023-05-25T19:54:30.324Z,72882.61
2023-05-25T19:56:58.717Z,72887.86
2023-05-25T19:59:30.454Z,72899.98
2023-05-25T20:01:58.856Z,72905.63
2023-05-25T20:04:27.297Z,72914.52
2023-05-25T20:06:55.736Z,72923.40
2023-05-25T20:09:30.963Z,72928.65
2023-05-25T20:11:59.842Z,72935.91
2023-05-25T20:14:30.537Z,72942.77
2023-05-25T20:16:58.884Z,72952.07
2023-05-25T20:19:27.292Z,72957.73
2023-05-25T20:21:55.856Z,72962.97
2023-05-25T20:24:24.412Z,72964.98
2023-05-25T20:26:57.012Z,72969.44
2023-05-25T20:29:25.931Z,72977.11
2023-05-25T20:31:54.411Z,72977.52
2023-05-25T20:34:22.757Z,72979.52
2023-05-25T20:36:51.447Z,72983.17
2023-05-25T20:39:19.851Z,72990.45
2023-05-25T20:41:48.148Z,72996.89
2023-05-25T20:44:17.282Z,72998.52
2023-05-25T20:46:45.594Z,73006.59
2023-05-25T20:49:14.043Z,73015.48
2023-05-25T20:51:50.084Z,73020.73
2023-05-25T20:54:18.439Z,73028.40
2023-05-25T20:56:48.267Z,73033.64
2023-05-25T20:59:16.830Z,73039.30
2023-05-25T21:01:45.862Z,73039.30
2023-05-25T21:04:14.299Z,73044.14
2023-05-25T21:06:42.634Z,73049.39
2023-05-25T21:09:10.949Z,73053.03
2023-05-25T21:11:39.302Z,73057.48
2023-05-25T21:14:11.815Z,73055.45
2023-05-25T21:16:41.901Z,73054.64
2023-05-25T21:19:11.739Z,73058.27
2023-05-25T21:21:40.150Z,73061.52
2023-05-25T21:24:08.540Z,73067.97
2023-05-25T21:26:37.895Z,73078.48
2023-05-25T21:29:07.813Z,73085.34
2023-05-25T21:31:36.384Z,73095.84
2023-05-25T21:34:04.714Z,73095.84
2023-05-25T21:36:33.051Z,73089.78
2023-05-25T21:39:02.051Z,73082.52
2023-05-25T21:41:30.817Z,73082.92
2023-05-25T21:43:59.114Z,73089.38
2023-05-25T21:46:27.400Z,73099.47
2023-05-25T21:48:58.214Z,73103.51
2023-05-25T21:51:26.552Z,73105.53
2023-05-25T21:53:54.926Z,73103.52
2023-05-25T21:56:24.478Z,73104.73
2023-05-25T21:58:54.028Z,73103.91
2023-05-25T22:01:23.763Z,73101.09
2023-05-25T22:03:52.050Z,73101.89
2023-05-25T22:06:20.318Z,73098.27
2023-05-25T22:08:48.599Z,73099.48
2023-05-25T22:11:16.935Z,73105.94
2023-05-25T22:13:46.010Z,73106.34
2023-05-25T22:16:14.321Z,73110.38
2023-05-25T22:18:42.658Z,73116.84
2023-05-25T22:21:11.038Z,73116.43
2023-05-25T22:23:39.488Z,73116.84
2023-05-25T22:26:07.887Z,73114.42
2023-05-25T22:28:36.132Z,73124.11
2023-05-25T22:31:04.481Z,73133.40
2023-05-25T22:33:32.805Z,73139.86
2023-05-25T22:36:02.357Z,73144.70
2023-05-25T22:38:30.600Z,73150.36
2023-05-25T22:40:58.831Z,73156.02
2023-05-25T22:43:27.806Z,73163.69
2023-05-25T22:45:58.183Z,73166.52
2023-05-25T22:48:26.837Z,73172.16
2023-05-25T22:50:56.028Z,73172.16
2023-05-25T22:53:25.185Z,73169.34
2023-05-25T22:55:53.457Z,73166.11
2023-05-25T22:58:21.703Z,73168.94
2023-05-25T23:00:51.008Z,73172.17
2023-05-25T23:03:19.330Z,73166.92
2023-05-25T23:05:47.919Z,73158.03
2023-05-25T23:08:16.316Z,73146.73
2023-05-25T23:10:45.008Z,73137.84
2023-05-25T23:13:15.024Z,73135.41
2023-05-25T23:15:44.472Z,73137.02
2023-05-25T23:18:13.075Z,73138.64
2023-05-25T23:20:41.412Z,73134.20
2023-05-25T23:23:09.668Z,73131.78
2023-05-25T23:25:38.071Z,73122.50
2023-05-25T23:28:06.291Z,73112.00
2023-05-25T23:30:35.215Z,73102.30
2023-05-25T23:33:03.699Z,73099.88
2023-05-25T23:35:32.021Z,73104.73
2023-05-25T23:38:01.777Z,73107.95
2023-05-25T23:40:30.158Z,73111.98
2023-05-25T23:42:58.490Z,73111.59
2023-05-25T23:45:27.340Z,73115.63
2023-05-25T23:47:55.798Z,73122.89
2023-05-25T23:50:24.780Z,73125.32
2023-05-25T23:52:53.000Z,73129.77
2023-05-25T23:55:21.318Z,73124.91
2023-05-25T23:57:49.613Z,73123.30
